Donnes mto: Actuelle lundi, 25.03.2019 04:00
Date Horaire Temp. E. Hum. E. P.atmo. Vent P. de rose Temp au vent Rafales
25.03.2019 04:00 3.8 C 79 % 901.8 hPa 0.0 km/h (0 Bft) 0.5 C 3.8 C 0.0 km/h (0 Bft)
25.03.2019 03:55 3.7 C 79 % 902.1 hPa 0.0 km/h (0 Bft) 0.4 C 3.7 C 0.0 km/h (0 Bft)
25.03.2019 03:50 3.7 C 79 % 902.1 hPa 0.0 km/h (0 Bft) 0.4 C 3.7 C 0.0 km/h (0 Bft)
25.03.2019 03:45 3.6 C 79 % 902.1 hPa 0.0 km/h (0 Bft) 0.3 C 3.6 C 0.0 km/h (0 Bft)
25.03.2019 03:40 3.6 C 79 % 902.1 hPa 0.0 km/h (0 Bft) 0.3 C 3.6 C 0.0 km/h (0 Bft)
25.03.2019 03:35 3.5 C 79 % 902.0 hPa 0.0 km/h (0 Bft) 0.2 C 3.5 C 0.0 km/h (0 Bft)
25.03.2019 03:30 3.5 C 79 % 902.0 hPa 0.2 km/h (0 Bft) 0.2 C 3.5 C 0.0 km/h (0 Bft)
25.03.2019 03:25 3.5 C 79 % 902.0 hPa 0.5 km/h (0 Bft) 0.2 C 3.5 C 0.0 km/h (0 Bft)
25.03.2019 03:20 3.4 C 79 % 902.0 hPa 0.6 km/h (0 Bft) 0.1 C 3.4 C 2.3 km/h (1 Bft)
25.03.2019 03:15 3.5 C 79 % 902.1 hPa 0.3 km/h (0 Bft) 0.2 C 3.5 C 0.0 km/h (0 Bft)
25.03.2019 03:10 3.5 C 79 % 902.1 hPa 0.2 km/h (0 Bft) 0.2 C 3.5 C 0.0 km/h (0 Bft)
25.03.2019 03:05 3.5 C 79 % 902.1 hPa 0.2 km/h (0 Bft) 0.2 C 3.5 C 0.0 km/h (0 Bft)
25.03.2019 03:00 3.5 C 79 % 902.1 hPa 0.0 km/h (0 Bft) 0.2 C 3.5 C 0.0 km/h (0 Bft)
25.03.2019 02:55 3.5 C 79 % 902.1 hPa 0.0 km/h (0 Bft) 0.2 C 3.5 C 0.0 km/h (0 Bft)
25.03.2019 02:50 3.5 C 79 % 902.1 hPa 0.5 km/h (0 Bft) 0.2 C 3.5 C 0.0 km/h (0 Bft)
25.03.2019 02:45 3.5 C 79 % 902.1 hPa 0.5 km/h (0 Bft) 0.2 C 3.5 C 0.0 km/h (0 Bft)
25.03.2019 02:40 3.4 C 79 % 902.1 hPa 0.2 km/h (0 Bft) 0.1 C 3.4 C 2.9 km/h (1 Bft)
25.03.2019 02:35 3.5 C 79 % 902.2 hPa 0.8 km/h (0 Bft) 0.2 C 3.5 C 0.0 km/h (0 Bft)
25.03.2019 02:30 3.3 C 79 % 902.2 hPa 1.1 km/h (1 Bft) 0.0 C 3.3 C 3.7 km/h (1 Bft)
25.03.2019 02:25 3.1 C 78 % 902.2 hPa 0.3 km/h (0 Bft) -0.4 C 3.1 C 1.6 km/h (1 Bft)
25.03.2019 02:20 3.0 C 77 % 902.2 hPa 0.0 km/h (0 Bft) -0.6 C 3.0 C 0.0 km/h (0 Bft)
_ Min-Heure 06:35 14:20 04:00 05:00 06:35 06:35 05:00
Minimum _ 1.6 C 43 % 901.8 hPa 0.0 km/h (0 Bft) -2.5 C 1.6 C 0.0 km/h (0 Bft)
_ Max-Heure 14:40 02:30 09:00 13:45 16:30 15:15 16:45
Maximum _ 13.3 C 79 % 904.5 hPa 8.5 km/h
O-SO (2 Bft)
2.9 C 13.3 C 17.2 km/h
N-NO (3 Bft)
Moyenne _ 7.3 C 63 % 903.6 hPa 2.3 km/h (1 Bft) 0.3 C 7.2 C 3.0 km/h (1 Bft)